Weather at Brooks Air Force Base [CLOSED]

Public forecast

Using degrees Fahrenheit for public forecast. Weather courtesy of forecast.io.

Closest aviation weather report (METAR) to Brooks Air Force Base

Closest report is Stinson Municipal Airport, 2.2 nm (4.0 km) WSW.

2024/07/24 19:53 (retrieved 53 minutes ago)

KSSF 241953Z VRB05KT 10SM SCT075 31/22 A3005 RMK AO2 LTG DSNT E-S SLP163 T03060222

Closest aviation forecast (TAF) to Brooks Air Force Base

Closest forecast is Stinson Municipal Airport, 2.2 nm (4.0 km) WSW.

2024/07/24 18:22 (retrieved 2 hours ago)

TAF KSSF 241720Z 2418/2518 07005KT P6SM VCSH SCT030 BKN050 TEMPO 2418/2422 4SM -SHRA BR FM250100 10005KT P6SM SCT030 BKN100 FM251100 36002KT P6SM BKN015 FM251700 03007KT P6SM VCSH BKN050